Time;durP1;ratioP1;P1;durP2;ratioP2;P2;SDS_P1;SDS_P2;PMS_P1;PMS_P2;Temp;Humidity;BMP_temperature;BMP_pressure;BME280_temperature;BME280_humidity;BME280_pressure;Samples;Min_cycle;Max_cycle;Signal;HPM_P1;HPM_P2
2022/07/28 00:01:28;;;;;;;4.85;2.22;;;28.60;96.70;;;;;;5075125;28;20076;-83
2022/07/28 00:03:59;;;;;;;5.82;2.20;;;28.60;96.70;;;;;;5059276;28;20044;-82
2022/07/28 00:06:28;;;;;;;6.80;2.15;;;28.60;96.70;;;;;;5057842;28;20528;-84
2022/07/28 00:08:56;;;;;;;8.57;2.08;;;28.60;96.70;;;;;;5083846;28;20131;-84
2022/07/28 00:11:25;;;;;;;6.95;1.98;;;28.50;96.70;;;;;;5086094;28;20040;-84
2022/07/28 00:13:54;;;;;;;8.73;2.42;;;28.50;96.70;;;;;;5085651;28;20040;-83
2022/07/28 00:16:23;;;;;;;7.45;2.05;;;28.40;96.70;;;;;;5066530;28;20138;-84
2022/07/28 00:18:52;;;;;;;6.43;1.85;;;28.40;96.70;;;;;;5082255;28;20071;-84
2022/07/28 00:21:23;;;;;;;6.47;2.42;;;28.50;96.70;;;;;;5077539;28;20058;-84
2022/07/28 00:23:51;;;;;;;7.85;2.13;;;28.50;96.70;;;;;;5076709;28;20044;-84
2022/07/28 00:26:20;;;;;;;6.28;2.60;;;28.50;96.70;;;;;;5069524;28;20231;-84
2022/07/28 00:28:49;;;;;;;6.70;2.00;;;28.50;96.70;;;;;;5077469;28;20048;-85
2022/07/28 00:31:18;;;;;;;7.55;2.08;;;28.40;96.70;;;;;;5089528;28;20063;-84
2022/07/28 00:33:46;;;;;;;5.78;2.20;;;28.40;96.70;;;;;;5079237;28;20095;-84
2022/07/28 00:36:15;;;;;;;6.47;2.10;;;28.40;96.70;;;;;;5084829;28;20040;-84
2022/07/28 00:38:45;;;;;;;4.32;1.92;;;28.20;96.70;;;;;;5084091;28;20051;-84
2022/07/28 00:41:18;;;;;;;6.90;2.25;;;28.20;96.70;;;;;;5083035;28;20051;-84
2022/07/28 00:43:48;;;;;;;5.65;2.45;;;28.30;96.70;;;;;;5086578;28;20047;-84
2022/07/28 00:46:19;;;;;;;6.40;2.20;;;28.30;96.70;;;;;;5085023;28;20092;-84
2022/07/28 00:48:49;;;;;;;4.43;2.20;;;28.30;96.70;;;;;;5083809;28;20125;-84
2022/07/28 00:51:20;;;;;;;5.80;2.00;;;28.20;96.70;;;;;;5082026;28;20072;-84
2022/07/28 00:53:51;;;;;;;4.55;2.22;;;28.20;96.70;;;;;;5083752;28;20040;-84
2022/07/28 00:56:20;;;;;;;7.85;2.35;;;28.20;96.70;;;;;;5082848;28;20048;-84
2022/07/28 00:58:49;;;;;;;5.82;2.22;;;28.10;96.70;;;;;;5078816;28;20047;-84
2022/07/28 01:01:20;;;;;;;5.07;2.03;;;28.10;96.70;;;;;;5069829;28;20067;-84
2022/07/28 01:03:52;;;;;;;10.43;2.83;;;28.10;96.70;;;;;;5080610;28;20075;-85
2022/07/28 01:06:46;;;;;;;6.80;2.13;;;28.00;96.70;;;;;;5082828;28;20549;-83
2022/07/28 01:09:37;;;;;;;5.85;1.95;;;28.10;96.70;;;;;;5076317;28;20055;-84
2022/07/28 01:12:15;;;;;;;5.78;2.60;;;28.10;96.70;;;;;;5084304;28;20040;-85
2022/07/28 01:14:48;;;;;;;5.00;1.90;;;28.00;96.70;;;;;;5084421;28;20048;-85
2022/07/28 01:17:25;;;;;;;6.32;2.75;;;27.90;96.70;;;;;;5081673;28;20428;-85
2022/07/28 01:20:04;;;;;;;5.80;2.28;;;27.80;96.70;;;;;;5082829;28;20519;-87
2022/07/28 01:22:38;;;;;;;6.00;2.00;;;27.90;96.70;;;;;;5082221;28;20040;-85
2022/07/28 01:25:20;;;;;;;6.45;2.25;;;27.90;96.70;;;;;;5075143;28;20048;-85
2022/07/28 01:28:05;;;;;;;7.32;2.15;;;27.90;96.70;;;;;;5066482;28;20052;-85
2022/07/28 01:30:40;;;;;;;7.32;2.47;;;27.80;96.70;;;;;;5067155;28;20577;-85
2022/07/28 01:33:17;;;;;;;7.90;2.67;;;27.80;96.70;;;;;;5081631;28;20172;-85
2022/07/28 01:35:50;;;;;;;7.00;2.47;;;27.80;96.70;;;;;;5077301;28;20036;-85
2022/07/28 01:38:21;;;;;;;5.57;2.13;;;27.70;96.70;;;;;;5081262;28;20048;-85
2022/07/28 01:40:53;;;;;;;5.25;2.35;;;27.80;96.70;;;;;;5084826;28;20048;-86
2022/07/28 01:43:23;;;;;;;3.50;2.22;;;27.80;96.70;;;;;;5071099;28;20048;-85
2022/07/28 01:45:55;;;;;;;5.82;2.20;;;27.70;96.70;;;;;;5079016;28;20046;-85
2022/07/28 01:48:26;;;;;;;5.82;2.47;;;27.70;96.70;;;;;;5097406;28;20031;-85
2022/07/28 01:50:56;;;;;;;4.85;2.22;;;27.70;96.70;;;;;;5066447;28;20396;-85
2022/07/28 01:53:26;;;;;;;4.82;1.85;;;27.60;96.70;;;;;;5084515;28;20044;-86
2022/07/28 01:55:57;;;;;;;3.60;1.75;;;27.60;96.70;;;;;;5089045;28;20040;-85
2022/07/28 01:58:27;;;;;;;5.15;2.47;;;27.60;96.70;;;;;;5060896;28;20506;-85
2022/07/28 02:00:59;;;;;;;7.65;2.65;;;27.70;96.70;;;;;;5077541;28;20068;-85
2022/07/28 02:03:31;;;;;;;4.95;2.40;;;27.70;96.70;;;;;;5075015;28;20044;-84
2022/07/28 02:06:01;;;;;;;8.18;2.85;;;27.70;96.70;;;;;;5084029;28;20044;-85
2022/07/28 02:08:32;;;;;;;5.28;2.17;;;27.70;96.70;;;;;;5077480;28;20115;-85
2022/07/28 02:13:49;;;;;;;6.53;2.15;;;27.60;96.70;;;;;;5073903;28;20046;-85
2022/07/28 02:16:23;;;;;;;6.10;2.30;;;27.50;96.70;;;;;;5089055;28;20118;-85
2022/07/28 02:18:54;;;;;;;6.53;2.22;;;27.50;96.70;;;;;;5062279;28;20052;-85
2022/07/28 02:21:25;;;;;;;4.78;2.22;;;27.30;96.70;;;;;;5079114;28;20109;-85
2022/07/28 02:23:54;;;;;;;5.07;2.00;;;27.30;96.70;;;;;;5079733;28;20032;-85
2022/07/28 02:26:27;;;;;;;6.85;2.08;;;27.30;96.70;;;;;;5066852;28;20043;-85
2022/07/28 02:28:59;;;;;;;7.00;2.15;;;27.30;96.70;;;;;;5072445;28;20044;-85
2022/07/28 02:31:33;;;;;;;6.97;2.13;;;27.20;96.70;;;;;;5076604;28;20045;-85
2022/07/28 02:34:04;;;;;;;6.35;2.10;;;27.30;96.70;;;;;;5080584;28;20574;-85
2022/07/28 02:36:40;;;;;;;4.97;2.45;;;27.10;96.70;;;;;;5082827;28;20055;-85
2022/07/28 02:39:17;;;;;;;4.93;1.90;;;27.00;96.70;;;;;;5081424;28;21383;-85
2022/07/28 02:41:49;;;;;;;5.93;2.28;;;27.00;96.70;;;;;;5081529;28;20040;-85
2022/07/28 02:44:25;;;;;;;4.72;1.90;;;27.00;96.70;;;;;;5075131;28;20097;-85
2022/07/28 02:46:57;;;;;;;7.22;2.10;;;26.90;96.70;;;;;;5060864;28;20083;-85
2022/07/28 02:49:30;;;;;;;4.78;2.13;;;26.90;96.70;;;;;;5062973;28;20063;-85
2022/07/28 02:52:00;;;;;;;7.13;2.63;;;26.90;96.70;;;;;;5078541;28;20193;-85
2022/07/28 02:54:31;;;;;;;4.25;2.40;;;26.90;96.70;;;;;;5087663;28;20050;-85
2022/07/28 02:57:00;;;;;;;6.85;2.53;;;26.80;96.70;;;;;;5087109;28;20064;-85
2022/07/28 02:59:30;;;;;;;3.00;2.10;;;26.90;96.70;;;;;;5081404;28;20721;-85
2022/07/28 03:02:00;;;;;;;4.93;2.33;;;27.00;96.70;;;;;;5082827;28;20040;-84
2022/07/28 03:07:16;;;;;;;6.90;2.33;;;26.80;96.70;;;;;;5076525;28;20167;-85
2022/07/28 03:09:46;;;;;;;6.95;2.30;;;26.70;96.70;;;;;;5088221;28;20048;-85
2022/07/28 03:12:15;;;;;;;7.93;2.55;;;26.60;96.70;;;;;;5080538;28;20040;-85
2022/07/28 03:14:43;;;;;;;4.05;1.95;;;26.60;96.70;;;;;;5067397;28;20068;-85
2022/07/28 03:17:13;;;;;;;6.32;2.13;;;26.50;96.70;;;;;;5079926;28;20747;-86
2022/07/28 03:19:42;;;;;;;4.90;2.47;;;26.50;96.70;;;;;;5079839;28;20559;-86
2022/07/28 03:22:10;;;;;;;5.40;1.95;;;26.60;96.70;;;;;;5101879;28;20131;-84
2022/07/28 03:24:42;;;;;;;5.88;2.40;;;26.60;96.70;;;;;;5089736;28;20036;-85
2022/07/28 03:27:16;;;;;;;5.32;2.17;;;26.60;96.70;;;;;;5076720;28;20515;-86
2022/07/28 03:29:48;;;;;;;4.75;1.80;;;26.60;96.70;;;;;;5085985;28;20036;-85
2022/07/28 03:32:19;;;;;;;6.60;2.17;;;26.70;96.70;;;;;;5085608;28;20052;-86
2022/07/28 03:34:48;;;;;;;6.45;2.40;;;26.70;96.70;;;;;;5083956;28;20036;-86
2022/07/28 03:37:23;;;;;;;6.07;2.30;;;26.70;96.70;;;;;;5082347;28;20048;-85
2022/07/28 03:39:53;;;;;;;5.25;2.30;;;26.70;96.70;;;;;;5090039;28;20102;-86
2022/07/28 03:42:23;;;;;;;4.97;1.95;;;26.70;96.70;;;;;;5069744;28;20114;-87
2022/07/28 03:44:51;;;;;;;4.60;2.22;;;26.70;96.70;;;;;;5061084;28;20046;-86
2022/07/28 03:47:23;;;;;;;3.25;1.98;;;26.70;96.70;;;;;;5088675;28;20040;-85
2022/07/28 03:49:51;;;;;;;6.18;1.92;;;26.60;96.70;;;;;;5077633;28;20152;-85
2022/07/28 03:52:19;;;;;;;6.10;2.95;;;26.60;96.70;;;;;;5084632;28;20064;-85
2022/07/28 03:54:47;;;;;;;13.98;3.15;;;26.60;96.70;;;;;;5090320;28;20036;-85
2022/07/28 03:57:15;;;;;;;5.85;2.30;;;26.50;96.70;;;;;;5068501;28;20051;-85
2022/07/28 03:59:43;;;;;;;6.30;2.38;;;26.50;96.70;;;;;;5077215;28;20052;-85
2022/07/28 04:02:11;;;;;;;7.20;2.30;;;26.60;96.70;;;;;;5077375;28;20059;-87
2022/07/28 04:04:41;;;;;;;6.53;2.47;;;26.60;96.70;;;;;;5066544;28;20071;-85
2022/07/28 04:07:09;;;;;;;3.35;1.58;;;26.70;96.70;;;;;;5064162;28;20081;-83
2022/07/28 04:09:38;;;;;;;5.65;2.30;;;26.60;96.70;;;;;;5077174;28;20059;-85
2022/07/28 04:12:07;;;;;;;3.97;2.10;;;26.70;96.70;;;;;;5086125;28;20063;-84
2022/07/28 04:14:40;;;;;;;7.97;2.45;;;26.60;96.70;;;;;;5070113;28;20075;-83
2022/07/28 04:17:10;;;;;;;6.85;2.33;;;26.50;96.70;;;;;;5069102;28;20052;-83
2022/07/28 04:19:40;;;;;;;8.40;2.63;;;26.50;96.70;;;;;;5080064;28;20051;-83
2022/07/28 04:22:08;;;;;;;5.97;2.40;;;26.60;96.70;;;;;;5083245;28;20078;-83
2022/07/28 04:24:36;;;;;;;6.93;2.47;;;26.70;96.70;;;;;;5084918;28;20377;-82
2022/07/28 04:27:05;;;;;;;6.18;2.55;;;26.50;96.70;;;;;;5083636;28;20054;-83
2022/07/28 04:29:34;;;;;;;5.78;2.47;;;26.50;96.70;;;;;;5084508;28;20032;-86
2022/07/28 04:32:02;;;;;;;7.38;2.65;;;26.60;96.70;;;;;;5082865;28;20048;-86
2022/07/28 04:34:30;;;;;;;6.65;2.55;;;26.70;96.70;;;;;;5080102;28;20090;-85
2022/07/28 04:36:59;;;;;;;6.00;2.33;;;26.60;96.70;;;;;;5068897;28;20071;-86
2022/07/28 04:39:27;;;;;;;4.97;2.47;;;26.60;96.70;;;;;;5064488;28;20610;-86
2022/07/28 04:41:56;;;;;;;9.95;2.88;;;26.60;96.70;;;;;;5067374;28;20051;-84
2022/07/28 04:44:24;;;;;;;6.55;2.38;;;26.60;96.70;;;;;;5059156;28;20075;-85
2022/07/28 04:46:52;;;;;;;6.82;2.55;;;26.50;96.70;;;;;;5081808;28;20050;-85
2022/07/28 04:49:20;;;;;;;9.32;2.70;;;26.50;96.70;;;;;;5079271;28;20614;-84
2022/07/28 04:51:49;;;;;;;5.50;2.72;;;26.40;96.70;;;;;;5081634;28;20484;-84
2022/07/28 04:54:19;;;;;;;9.43;2.22;;;26.40;96.70;;;;;;5065625;28;20440;-84
2022/07/28 04:56:53;;;;;;;4.35;2.13;;;26.50;96.70;;;;;;5074642;28;20094;-84
2022/07/28 04:59:22;;;;;;;8.93;2.97;;;26.60;96.70;;;;;;5089173;28;20067;-80
2022/07/28 05:01:52;;;;;;;6.20;2.50;;;26.60;96.70;;;;;;5063823;28;20079;-84
2022/07/28 05:04:20;;;;;;;10.10;3.30;;;26.70;96.70;;;;;;5071075;28;20050;-84
2022/07/28 05:06:49;;;;;;;4.78;2.75;;;26.70;96.70;;;;;;5085138;28;20349;-86
2022/07/28 05:09:19;;;;;;;7.40;2.25;;;26.70;96.70;;;;;;5087634;28;20044;-86
2022/07/28 05:11:47;;;;;;;7.93;3.08;;;26.60;96.70;;;;;;5070213;28;20050;-84
2022/07/28 05:14:16;;;;;;;4.60;1.95;;;26.60;96.70;;;;;;5073419;28;20045;-85
2022/07/28 05:16:44;;;;;;;7.43;3.28;;;26.50;96.70;;;;;;5074073;28;20045;-85
2022/07/28 05:19:12;;;;;;;5.05;2.42;;;26.50;96.70;;;;;;5060985;28;20072;-84
2022/07/28 05:21:40;;;;;;;6.00;2.50;;;26.60;96.70;;;;;;5097512;28;20054;-84
2022/07/28 05:24:09;;;;;;;5.72;2.70;;;26.70;96.70;;;;;;5088161;28;20139;-85
2022/07/28 05:26:40;;;;;;;6.13;2.60;;;26.80;96.70;;;;;;5087790;28;20059;-85
2022/07/28 05:29:08;;;;;;;6.43;2.50;;;26.80;96.70;;;;;;5071295;28;20052;-84
2022/07/28 05:31:36;;;;;;;7.90;3.00;;;26.80;96.70;;;;;;5080064;28;20043;-87
2022/07/28 05:34:05;;;;;;;10.75;3.30;;;26.80;96.70;;;;;;5053130;28;20397;-90
2022/07/28 05:36:34;;;;;;;5.05;2.50;;;26.80;96.70;;;;;;5066425;28;20052;-88
2022/07/28 05:39:02;;;;;;;10.80;3.13;;;26.80;96.70;;;;;;5082813;28;20050;-88
2022/07/28 05:41:31;;;;;;;8.75;3.25;;;26.90;96.70;;;;;;5087095;28;20161;-87
2022/07/28 05:44:00;;;;;;;9.23;3.58;;;26.90;96.70;;;;;;5089482;28;20044;-88
2022/07/28 05:46:28;;;;;;;9.05;3.38;;;26.90;96.70;;;;;;5087814;28;20406;-88
2022/07/28 05:48:57;;;;;;;6.28;3.50;;;26.90;96.70;;;;;;5077511;28;20040;-86
2022/07/28 05:51:26;;;;;;;9.70;3.13;;;26.90;96.70;;;;;;5063284;28;20229;-89
2022/07/28 05:53:54;;;;;;;8.38;3.28;;;26.80;96.70;;;;;;5093550;28;20358;-92
2022/07/28 05:56:22;;;;;;;6.75;2.92;;;26.80;96.70;;;;;;5085252;28;20585;-87
2022/07/28 05:58:51;;;;;;;12.65;3.53;;;26.80;96.70;;;;;;5087551;28;20060;-86
2022/07/28 06:01:21;;;;;;;9.30;2.88;;;26.90;96.70;;;;;;5087120;28;20055;-85
2022/07/28 06:03:51;;;;;;;5.28;2.60;;;26.90;96.70;;;;;;5078463;28;20468;-83
2022/07/28 06:06:40;;;;;;;6.00;2.72;;;27.00;96.70;;;;;;5084163;28;20048;-87
2022/07/28 06:09:08;;;;;;;20.55;3.55;;;27.10;96.70;;;;;;5078289;28;20094;-89
2022/07/28 06:11:37;;;;;;;10.85;3.30;;;27.20;96.70;;;;;;5086719;28;20510;-91
2022/07/28 06:14:05;;;;;;;7.53;3.13;;;27.20;96.70;;;;;;5088023;28;20040;-90
2022/07/28 06:16:35;;;;;;;7.63;2.83;;;27.30;96.70;;;;;;5087975;28;20044;-89
2022/07/28 06:19:03;;;;;;;9.35;2.90;;;27.30;96.70;;;;;;5085687;28;20036;-84
2022/07/28 06:21:32;;;;;;;10.85;3.20;;;27.20;96.70;;;;;;5085643;28;20506;-86
2022/07/28 06:24:00;;;;;;;5.63;2.90;;;27.40;96.70;;;;;;5086336;28;20109;-84
2022/07/28 06:26:28;;;;;;;7.70;2.88;;;27.50;96.70;;;;;;5088270;28;20047;-86
2022/07/28 06:28:57;;;;;;;5.10;2.28;;;27.50;96.70;;;;;;5079048;28;20130;-86
2022/07/28 06:31:25;;;;;;;6.93;2.75;;;27.60;96.70;;;;;;5069841;28;20044;-87
2022/07/28 06:33:55;;;;;;;6.18;2.95;;;27.60;96.70;;;;;;5085385;28;20101;-87
2022/07/28 06:36:23;;;;;;;4.53;2.50;;;27.70;96.70;;;;;;5086970;28;20052;-85
2022/07/28 06:38:52;;;;;;;6.72;3.10;;;27.80;96.70;;;;;;5085531;28;20047;-85
2022/07/28 06:41:20;;;;;;;5.55;2.40;;;27.80;96.70;;;;;;5086505;28;20440;-84
2022/07/28 06:43:51;;;;;;;12.07;2.75;;;27.80;96.70;;;;;;5068993;28;20052;-84
2022/07/28 06:46:19;;;;;;;8.18;2.83;;;27.80;96.70;;;;;;5088198;28;20044;-85
2022/07/28 06:48:47;;;;;;;6.20;2.80;;;27.90;96.70;;;;;;5084829;28;20559;-85
2022/07/28 06:51:18;;;;;;;6.40;2.90;;;28.00;96.70;;;;;;5069551;28;20094;-85
2022/07/28 06:53:47;;;;;;;9.85;2.70;;;27.90;96.70;;;;;;5080642;28;20055;-85
2022/07/28 06:56:16;;;;;;;6.68;2.67;;;27.90;96.70;;;;;;5061999;28;20069;-85
2022/07/28 06:58:48;;;;;;;8.43;3.25;;;28.00;96.70;;;;;;5067051;28;20056;-85
2022/07/28 07:01:16;;;;;;;5.85;3.45;;;28.00;96.70;;;;;;5076717;28;20064;-84
2022/07/28 07:03:45;;;;;;;10.43;2.58;;;28.00;96.70;;;;;;5087178;28;20066;-86
2022/07/28 07:06:13;;;;;;;7.13;3.13;;;28.10;96.70;;;;;;5084620;28;20553;-86
2022/07/28 07:08:43;;;;;;;7.25;2.70;;;28.10;96.70;;;;;;5098077;28;20130;-87
2022/07/28 07:11:12;;;;;;;8.43;3.28;;;28.10;96.70;;;;;;5079957;28;20040;-86
2022/07/28 07:13:40;;;;;;;6.57;2.72;;;28.10;96.70;;;;;;5083491;28;20044;-86
2022/07/28 07:16:09;;;;;;;4.75;2.80;;;28.20;96.70;;;;;;5055820;28;20502;-86
2022/07/28 07:18:37;;;;;;;4.75;2.80;;;28.30;96.70;;;;;;5086822;28;20113;-87
2022/07/28 07:21:05;;;;;;;8.20;2.80;;;28.40;96.70;;;;;;5068066;28;20135;-86
2022/07/28 07:23:34;;;;;;;5.32;2.30;;;28.50;96.70;;;;;;5067947;28;20123;-87
2022/07/28 07:26:04;;;;;;;7.45;2.38;;;28.50;96.70;;;;;;5076872;28;20495;-87
2022/07/28 07:28:33;;;;;;;5.60;3.05;;;28.50;96.70;;;;;;5081375;28;20048;-86
2022/07/28 07:31:02;;;;;;;6.05;2.97;;;28.60;96.70;;;;;;5078195;28;20596;-87
2022/07/28 07:33:30;;;;;;;10.85;3.22;;;28.70;96.70;;;;;;5086420;28;20051;-86
2022/07/28 07:35:59;;;;;;;5.13;2.83;;;28.70;96.70;;;;;;5087298;28;20040;-86
2022/07/28 07:38:27;;;;;;;6.03;2.85;;;28.70;96.70;;;;;;5084142;28;20048;-87
2022/07/28 07:40:56;;;;;;;5.70;3.05;;;28.70;96.70;;;;;;5095729;28;20043;-87
2022/07/28 07:43:26;;;;;;;5.03;2.75;;;28.80;96.70;;;;;;5108098;28;20051;-86
2022/07/28 07:45:54;;;;;;;5.28;2.88;;;28.80;96.70;;;;;;5081593;28;20097;-85
2022/07/28 07:48:23;;;;;;;5.50;2.83;;;28.90;96.70;;;;;;5099850;28;20036;-86
2022/07/28 07:50:51;;;;;;;5.72;2.72;;;29.00;96.70;;;;;;5070214;28;20055;-86
2022/07/28 07:53:21;;;;;;;5.72;2.85;;;29.10;96.70;;;;;;5081224;28;20040;-86
2022/07/28 07:55:50;;;;;;;6.05;3.08;;;29.10;96.70;;;;;;5085233;28;20113;-86
2022/07/28 07:58:18;;;;;;;6.32;2.85;;;29.10;96.70;;;;;;5083209;28;20044;-86
2022/07/28 08:00:48;;;;;;;5.20;2.92;;;29.20;96.70;;;;;;5089685;28;20040;-85
2022/07/28 08:03:16;;;;;;;6.60;3.20;;;29.20;96.70;;;;;;5090954;28;20054;-87
2022/07/28 08:05:53;;;;;;;6.97;2.83;;;29.30;96.70;;;;;;5081256;28;20045;-87
2022/07/28 08:08:22;;;;;;;4.60;2.97;;;29.30;96.70;;;;;;5088486;28;20090;-85
2022/07/28 08:10:51;;;;;;;5.68;2.95;;;29.40;96.70;;;;;;5081691;28;20138;-84
2022/07/28 08:13:19;;;;;;;5.03;3.03;;;29.50;96.70;;;;;;5085477;28;20071;-84
2022/07/28 08:15:49;;;;;;;5.03;3.40;;;29.50;96.70;;;;;;5068605;28;20135;-87
2022/07/28 08:18:19;;;;;;;7.35;3.17;;;29.70;96.70;;;;;;5085266;28;20048;-83
2022/07/28 08:20:47;;;;;;;6.05;3.08;;;29.80;96.70;;;;;;5098233;28;20040;-85
2022/07/28 08:23:16;;;;;;;5.47;3.08;;;29.80;96.70;;;;;;5097167;28;20051;-85
2022/07/28 08:25:49;;;;;;;7.97;3.72;;;29.90;96.70;;;;;;5088576;28;20080;-84
2022/07/28 08:28:17;;;;;;;4.78;2.97;;;30.00;96.70;;;;;;5087677;28;20046;-84
2022/07/28 08:30:46;;;;;;;4.80;3.00;;;30.10;96.70;;;;;;5071705;28;20071;-83
2022/07/28 08:33:20;;;;;;;7.22;3.20;;;30.30;96.70;;;;;;5076293;28;20044;-87
2022/07/28 08:35:49;;;;;;;5.25;3.47;;;30.30;96.70;;;;;;5087066;28;20109;-86
2022/07/28 08:38:18;;;;;;;6.70;3.50;;;30.40;96.70;;;;;;5083698;28;20398;-84
2022/07/28 08:40:50;;;;;;;3.38;2.95;;;30.50;96.70;;;;;;5084718;28;20056;-87
2022/07/28 08:43:32;;;;;;;3.58;2.80;;;30.40;96.70;;;;;;5088750;28;20047;-87
2022/07/28 08:46:03;;;;;;;7.97;3.50;;;30.50;96.70;;;;;;5079785;28;20064;-86
2022/07/28 08:48:34;;;;;;;3.97;3.28;;;30.60;96.70;;;;;;5088462;28;20055;-88
2022/07/28 08:51:05;;;;;;;4.95;3.28;;;30.50;96.70;;;;;;5092725;28;20070;-88
2022/07/28 08:53:36;;;;;;;9.43;3.60;;;30.40;96.70;;;;;;5090167;28;20042;-88
2022/07/28 08:56:05;;;;;;;6.65;2.90;;;30.40;96.70;;;;;;5088425;28;20535;-87
2022/07/28 08:58:35;;;;;;;4.82;3.25;;;30.50;96.70;;;;;;5087628;28;20042;-87
2022/07/28 09:01:06;;;;;;;5.20;3.25;;;30.60;96.70;;;;;;5088542;28;20043;-88
2022/07/28 09:03:37;;;;;;;4.85;3.20;;;30.80;96.70;;;;;;5064079;28;20560;-88
2022/07/28 09:06:06;;;;;;;3.90;3.17;;;30.80;96.70;;;;;;5088509;28;20047;-88
2022/07/28 09:08:34;;;;;;;5.90;3.30;;;31.00;96.70;;;;;;5089947;28;20135;-88
2022/07/28 09:11:05;;;;;;;4.63;3.33;;;30.90;96.70;;;;;;5089454;28;20048;-87
2022/07/28 09:13:34;;;;;;;6.32;3.47;;;30.90;96.70;;;;;;5072309;28;20051;-87
2022/07/28 09:16:05;;;;;;;5.57;3.40;;;30.90;96.70;;;;;;5081238;28;20036;-87
2022/07/28 09:18:35;;;;;;;4.55;3.30;;;31.00;96.70;;;;;;5088760;28;20131;-87
2022/07/28 09:21:03;;;;;;;4.82;3.28;;;31.00;96.70;;;;;;5086474;28;20077;-87
2022/07/28 09:23:42;;;;;;;5.93;3.25;;;31.00;96.70;;;;;;5066657;28;20039;-87
2022/07/28 09:26:12;;;;;;;4.82;3.78;;;31.20;96.70;;;;;;5083701;28;20076;-86
2022/07/28 09:28:49;;;;;;;5.40;3.30;;;31.40;96.70;;;;;;5086648;28;20047;-86
2022/07/28 09:31:18;;;;;;;3.70;3.15;;;31.60;96.70;;;;;;5094539;27;20056;-87
2022/07/28 09:33:59;;;;;;;4.10;2.90;;;31.60;96.70;;;;;;5087911;28;20090;-87
2022/07/28 09:36:28;;;;;;;8.43;3.25;;;31.60;96.70;;;;;;5082396;28;20044;-88
2022/07/28 09:38:57;;;;;;;5.75;3.20;;;31.70;96.70;;;;;;5098164;28;20083;-88
2022/07/28 09:41:26;;;;;;;5.57;3.30;;;31.80;96.70;;;;;;5083127;28;20047;-88
2022/07/28 09:43:54;;;;;;;3.80;3.05;;;31.80;96.70;;;;;;5097670;28;20032;-88
2022/07/28 09:46:24;;;;;;;3.70;2.97;;;31.80;96.70;;;;;;5088960;28;20047;-88
2022/07/28 09:48:59;;;;;;;3.50;2.90;;;31.80;96.70;;;;;;5087727;28;20048;-88
2022/07/28 09:51:29;;;;;;;4.47;3.03;;;31.80;96.70;;;;;;5081567;28;20497;-87
2022/07/28 09:54:08;;;;;;;5.70;3.10;;;31.70;96.70;;;;;;5079981;28;20089;-89
2022/07/28 09:56:37;;;;;;;4.07;3.00;;;31.70;96.70;;;;;;5069457;28;20051;-86
2022/07/28 09:59:07;;;;;;;6.25;3.47;;;31.80;96.70;;;;;;5095274;28;20055;-88
2022/07/28 10:01:50;;;;;;;3.88;3.00;;;31.90;96.70;;;;;;5087573;28;20064;-88
2022/07/28 10:04:31;;;;;;;3.75;2.97;;;32.20;96.70;;;;;;5087151;28;20044;-86
2022/07/28 10:07:05;;;;;;;3.33;2.88;;;32.30;96.70;;;;;;5095376;28;20048;-86
2022/07/28 10:09:34;;;;;;;6.63;3.15;;;32.40;96.70;;;;;;5084457;28;20541;-88
2022/07/28 10:12:17;;;;;;;7.65;3.10;;;32.30;96.70;;;;;;5079160;28;20048;-87
2022/07/28 10:14:46;;;;;;;3.58;2.92;;;32.40;96.70;;;;;;5068618;28;20139;-88
2022/07/28 10:17:24;;;;;;;4.10;2.92;;;32.40;96.70;;;;;;5097247;28;20071;-87
2022/07/28 10:20:05;;;;;;;5.63;3.13;;;32.40;96.70;;;;;;5084272;28;20056;-88
2022/07/28 10:22:36;;;;;;;5.45;3.28;;;32.30;96.70;;;;;;5081746;28;20167;-87
2022/07/28 10:25:39;;;;;;;4.97;3.00;;;32.40;96.70;;;;;;5038378;28;20040;-87
2022/07/28 10:28:10;;;;;;;4.00;2.80;;;32.40;96.70;;;;;;5042746;28;20052;-88
2022/07/28 10:30:39;;;;;;;5.60;3.35;;;32.50;96.70;;;;;;5027581;28;20837;-86
2022/07/28 10:33:30;;;;;;;4.55;3.60;;;32.80;96.70;;;;;;5059186;28;20110;-86
2022/07/28 10:36:01;;;;;;;5.90;3.55;;;33.10;96.70;;;;;;5065540;28;20061;-86
2022/07/28 10:38:34;;;;;;;4.80;3.10;;;33.30;96.70;;;;;;5056329;28;20139;-86
2022/07/28 10:41:05;;;;;;;4.93;2.83;;;33.30;96.70;;;;;;5058229;28;20078;-86
2022/07/28 10:43:35;;;;;;;5.60;2.92;;;33.50;96.70;;;;;;5065443;28;20139;-86
2022/07/28 10:46:30;;;;;;;3.95;2.90;;;33.70;96.10;;;;;;5065818;28;20474;-91
2022/07/28 10:49:01;;;;;;;5.70;3.00;;;33.80;95.20;;;;;;5039028;28;20539;-86
2022/07/28 10:51:32;;;;;;;3.17;2.45;;;34.00;94.30;;;;;;5046265;28;20063;-84
2022/07/28 10:54:07;;;;;;;3.25;2.85;;;34.10;93.00;;;;;;5043511;28;20045;-85
2022/07/28 10:56:47;;;;;;;4.10;3.05;;;34.20;93.70;;;;;;5042418;28;20053;-85
2022/07/28 10:59:43;;;;;;;5.72;3.00;;;34.20;92.40;;;;;;5047928;28;20636;-89
2022/07/28 11:03:00;;;;;;;7.03;3.45;;;34.20;92.90;;;;;;5068377;28;20064;-82
2022/07/28 11:05:42;;;;;;;3.22;2.92;;;34.20;92.50;;;;;;4987998;28;20589;-87
2022/07/28 11:08:28;;;;;;;4.40;2.50;;;34.50;92.80;;;;;;4995193;28;20054;-83
2022/07/28 11:10:57;;;;;;;3.25;2.25;;;34.20;90.00;;;;;;4969922;28;20116;-82
2022/07/28 11:13:37;;;;;;;4.72;2.80;;;34.00;91.20;;;;;;4994461;28;20411;-81
2022/07/28 11:16:19;;;;;;;5.70;2.70;;;34.20;91.00;;;;;;4992808;28;20190;-85
2022/07/28 11:19:05;;;;;;;4.50;2.63;;;34.40;90.10;;;;;;4981588;28;20050;-84
2022/07/28 11:22:27;;;;;;;3.95;2.50;;;34.60;89.60;;;;;;4988091;28;20053;-82
2022/07/28 11:25:27;;;;;;;5.47;3.00;;;34.60;89.40;;;;;;4951885;28;20563;-84
2022/07/28 11:28:03;;;;;;;4.28;2.67;;;34.80;89.00;;;;;;4952238;28;20112;-80
2022/07/28 11:30:51;;;;;;;5.53;2.72;;;35.00;88.40;;;;;;4979370;28;20520;-80
2022/07/28 11:33:21;;;;;;;4.80;2.85;;;35.20;88.20;;;;;;4976976;28;20057;-80
2022/07/28 11:35:57;;;;;;;2.90;2.30;;;35.20;87.30;;;;;;5001745;28;20173;-82
2022/07/28 11:38:27;;;;;;;6.55;2.70;;;35.20;86.70;;;;;;4994680;28;20046;-82
2022/07/28 11:40:58;;;;;;;4.35;2.30;;;35.40;87.50;;;;;;5077026;28;20047;-87
2022/07/28 11:43:32;;;;;;;3.33;2.22;;;35.50;86.50;;;;;;5100403;28;20048;-85
2022/07/28 11:46:32;;;;;;;4.30;2.47;;;35.60;87.10;;;;;;5063788;28;20091;-84
2022/07/28 11:49:23;;;;;;;3.75;2.40;;;35.40;87.40;;;;;;5079589;28;20131;-84
2022/07/28 11:52:20;;;;;;;2.72;2.30;;;35.40;87.90;;;;;;5066997;28;20044;-85
2022/07/28 11:54:54;;;;;;;4.68;2.47;;;35.40;87.50;;;;;;5083271;28;20053;-84
2022/07/28 11:57:26;;;;;;;5.07;2.83;;;35.60;87.20;;;;;;5067155;28;20074;-84
2022/07/28 12:00:00;;;;;;;4.00;2.13;;;35.90;85.80;;;;;;5056802;28;20103;-84
2022/07/28 12:02:33;;;;;;;3.47;2.13;;;36.00;84.20;;;;;;5066191;28;20061;-85
2022/07/28 12:05:11;;;;;;;2.60;2.08;;;36.00;84.70;;;;;;5069494;28;20053;-84
2022/07/28 12:07:45;;;;;;;4.47;1.95;;;36.00;83.80;;;;;;5068210;28;20048;-84
2022/07/28 12:10:26;;;;;;;5.35;2.30;;;35.90;82.10;;;;;;5068858;28;20056;-85
2022/07/28 12:13:26;;;;;;;2.22;1.73;;;35.90;83.00;;;;;;5068261;28;20086;-85
2022/07/28 12:15:54;;;;;;;4.07;1.98;;;36.10;81.20;;;;;;5067877;28;20072;-82
2022/07/28 12:18:23;;;;;;;4.13;2.20;;;36.10;82.30;;;;;;5075839;28;20045;-82
2022/07/28 12:20:53;;;;;;;4.68;2.20;;;36.20;82.90;;;;;;5059986;28;20048;-82
2022/07/28 12:23:30;;;;;;;3.00;1.80;;;36.20;81.50;;;;;;5066391;28;20117;-82
2022/07/28 12:26:29;;;;;;;2.58;2.33;;;36.40;81.10;;;;;;5062419;28;20067;-82
2022/07/28 12:29:32;;;;;;;2.58;2.38;;;36.30;81.70;;;;;;5067262;28;20056;-82
2022/07/28 12:32:04;;;;;;;5.05;2.45;;;36.30;81.80;;;;;;5061796;28;20412;-82
2022/07/28 12:34:34;;;;;;;2.35;2.13;;;36.40;81.90;;;;;;5061303;28;20494;-82
2022/07/28 12:37:04;;;;;;;4.00;2.35;;;36.30;82.20;;;;;;5057739;28;20054;-82
2022/07/28 12:39:35;;;;;;;3.00;2.42;;;36.40;82.40;;;;;;5081776;28;20045;-82
2022/07/28 12:42:04;;;;;;;3.97;2.33;;;36.50;82.80;;;;;;5061497;28;20484;-82
2022/07/28 12:44:35;;;;;;;5.35;2.50;;;36.80;82.00;;;;;;5077048;28;20090;-82
2022/07/28 12:47:06;;;;;;;3.45;2.15;;;37.00;81.20;;;;;;5067731;28;20044;-82
2022/07/28 12:49:36;;;;;;;2.75;2.00;;;37.00;80.20;;;;;;5061431;28;20489;-82
2022/07/28 12:52:17;;;;;;;4.57;2.40;;;37.10;80.50;;;;;;5068025;28;20402;-81
2022/07/28 12:54:49;;;;;;;3.90;2.20;;;37.20;80.30;;;;;;5054516;28;20040;-83
2022/07/28 12:57:40;;;;;;;3.38;1.90;;;37.20;80.30;;;;;;5074636;28;20064;-80
2022/07/28 13:00:20;;;;;;;3.50;2.38;;;36.90;79.80;;;;;;5071030;28;20486;-82
2022/07/28 13:02:49;;;;;;;5.88;2.30;;;36.80;81.40;;;;;;5074373;28;20095;-82
2022/07/28 13:06:01;;;;;;;2.50;2.20;;;36.80;82.10;;;;;;5082003;28;20079;-84
2022/07/28 13:08:24;;;;;;;6.05;3.20;;;36.80;82.00;;;;;;5056574;28;20041;-85
2022/07/28 13:10:56;;;;;;;4.18;2.85;;;36.70;91.10;;;;;;5071831;28;20110;-85
2022/07/28 13:13:26;;;;;;;5.35;2.80;;;36.70;91.40;;;;;;5076570;28;20134;-87
2022/07/28 13:16:12;;;;;;;5.72;2.92;;;36.70;91.60;;;;;;5055497;28;20477;-86
2022/07/28 13:18:41;;;;;;;;;;;36.60;91.20;;;;;;5064320;28;20071;-86